createdAt,value
2024-01-15T00:00:18.233Z,82.36
2024-01-15T00:02:45.200Z,81.99
2024-01-15T00:05:11.898Z,82.20
2024-01-15T00:07:38.594Z,81.98
2024-01-15T00:10:05.663Z,82.13
2024-01-15T00:12:32.432Z,82.18
2024-01-15T00:14:59.096Z,81.85
2024-01-15T00:17:25.822Z,81.91
2024-01-15T00:19:53.248Z,81.85
2024-01-15T00:22:20.174Z,82.09
2024-01-15T00:24:46.890Z,81.88
2024-01-15T00:27:13.617Z,82.02
2024-01-15T00:29:40.379Z,82.55
2024-01-15T00:32:07.099Z,82.18
2024-01-15T00:34:33.882Z,82.09
2024-01-15T00:37:00.622Z,81.94
2024-01-15T00:39:27.393Z,82.62
2024-01-15T00:41:54.210Z,82.42
2024-01-15T00:44:20.917Z,82.78
2024-01-15T00:46:47.879Z,83.01
2024-01-15T00:49:15.105Z,83.17
2024-01-15T00:51:42.382Z,82.81
2024-01-15T00:54:09.511Z,83.03
2024-01-15T00:56:36.347Z,82.45
2024-01-15T00:59:03.140Z,82.49
2024-01-15T01:01:29.974Z,82.90
2024-01-15T01:03:56.992Z,82.76
2024-01-15T01:06:23.933Z,82.47
2024-01-15T01:08:50.613Z,82.61
2024-01-15T01:11:17.662Z,82.43
2024-01-15T01:13:44.330Z,82.59
2024-01-15T01:16:11.027Z,81.99
2024-01-15T01:18:37.894Z,82.98
2024-01-15T01:21:04.933Z,82.79
2024-01-15T01:23:31.782Z,83.01
2024-01-15T01:25:58.581Z,82.59
2024-01-15T01:28:25.415Z,82.36
2024-01-15T01:30:52.326Z,82.87
2024-01-15T01:33:19.237Z,82.59
2024-01-15T01:35:46.530Z,82.69
2024-01-15T01:38:13.724Z,82.67
2024-01-15T01:40:40.390Z,83.11
2024-01-15T01:43:07.265Z,82.91
2024-01-15T01:45:33.995Z,82.95
2024-01-15T01:48:02.329Z,82.83
2024-01-15T01:50:32.662Z,82.50
2024-01-15T01:53:00.949Z,82.79
2024-01-15T01:55:30.824Z,82.58
2024-01-15T01:57:58.073Z,82.63
2024-01-15T02:00:25.456Z,82.86
2024-01-15T02:02:52.370Z,82.95
2024-01-15T02:05:23.705Z,82.65
2024-01-15T02:07:50.573Z,82.93
2024-01-15T02:10:17.421Z,82.53
2024-01-15T02:12:44.920Z,82.25
2024-01-15T02:15:11.903Z,81.75
2024-01-15T02:18:01.735Z,81.90
2024-01-15T02:20:28.632Z,82.07
2024-01-15T02:22:55.513Z,81.40
2024-01-15T02:25:22.301Z,81.24
2024-01-15T02:27:49.172Z,81.28
2024-01-15T02:30:17.116Z,81.32
2024-01-15T02:32:44.012Z,81.19
2024-01-15T02:35:10.760Z,81.42
2024-01-15T02:37:37.421Z,82.02
2024-01-15T02:40:04.656Z,82.22
2024-01-15T02:42:31.477Z,82.32
2024-01-15T02:44:58.264Z,82.21
2024-01-15T02:47:25.047Z,82.95
2024-01-15T02:49:52.029Z,82.63
2024-01-15T02:52:19.119Z,82.30
2024-01-15T02:54:45.977Z,82.08
2024-01-15T02:57:12.725Z,81.57
2024-01-15T02:59:39.434Z,82.01
2024-01-15T03:02:06.155Z,81.64
2024-01-15T03:04:33.071Z,81.80
2024-01-15T03:06:59.847Z,81.92
2024-01-15T03:09:26.529Z,81.86
2024-01-15T03:11:53.359Z,82.14
2024-01-15T03:14:21.396Z,81.80
2024-01-15T03:16:48.136Z,81.74
2024-01-15T03:19:14.865Z,81.57
2024-01-15T03:21:41.636Z,81.69
2024-01-15T03:24:08.305Z,81.19
2024-01-15T03:26:35.086Z,81.05
2024-01-15T03:29:01.901Z,81.40
2024-01-15T03:31:28.728Z,81.37
2024-01-15T03:33:55.463Z,81.10
2024-01-15T03:36:22.409Z,81.28
2024-01-15T03:38:49.146Z,81.04
2024-01-15T03:41:15.885Z,81.04
2024-01-15T03:43:42.510Z,81.53
2024-01-15T03:46:09.240Z,81.94
2024-01-15T03:48:36.061Z,81.73
2024-01-15T03:51:02.859Z,82.32
2024-01-15T03:53:29.453Z,81.06
2024-01-15T03:55:56.211Z,81.54
2024-01-15T03:58:23.092Z,81.40
2024-01-15T04:00:50.222Z,81.76
2024-01-15T04:03:17.388Z,81.92
2024-01-15T04:05:44.205Z,82.07
2024-01-15T04:08:10.948Z,82.52
2024-01-15T04:10:37.629Z,82.46
2024-01-15T04:13:04.760Z,83.12
2024-01-15T04:15:31.452Z,82.79
2024-01-15T04:17:58.222Z,82.81
2024-01-15T04:20:25.748Z,83.23
2024-01-15T04:22:53.271Z,82.43
2024-01-15T04:25:19.909Z,82.64
2024-01-15T04:27:46.698Z,82.93
2024-01-15T04:30:13.997Z,82.74
2024-01-15T04:32:40.763Z,82.87
2024-01-15T04:35:08.178Z,82.33
2024-01-15T04:37:34.874Z,82.00
2024-01-15T04:40:01.692Z,81.62
2024-01-15T04:42:28.428Z,81.48
2024-01-15T04:44:55.068Z,81.01
2024-01-15T04:47:21.781Z,80.74
2024-01-15T04:49:50.218Z,80.65
2024-01-15T04:52:16.987Z,81.08
2024-01-15T04:54:43.764Z,80.68
2024-01-15T04:57:10.588Z,80.36
2024-01-15T04:59:37.202Z,80.49
2024-01-15T05:02:04.131Z,79.99
2024-01-15T05:04:31.326Z,80.47
2024-01-15T05:06:58.267Z,80.54
2024-01-15T05:09:25.074Z,80.53
2024-01-15T05:11:51.742Z,80.38
2024-01-15T05:14:18.366Z,80.37
2024-01-15T05:16:49.221Z,80.02
2024-01-15T05:19:16.210Z,80.31
2024-01-15T05:21:43.171Z,80.74
2024-01-15T05:24:09.939Z,80.44
2024-01-15T05:26:36.580Z,80.57
2024-01-15T05:29:03.251Z,80.21
2024-01-15T05:31:30.158Z,80.36
2024-01-15T05:33:56.945Z,79.62
2024-01-15T05:36:23.871Z,79.76
2024-01-15T05:38:51.000Z,79.68
2024-01-15T05:41:17.639Z,79.62
2024-01-15T05:43:44.575Z,79.36
2024-01-15T05:46:11.273Z,79.66
2024-01-15T05:48:38.183Z,79.20
2024-01-15T05:51:04.994Z,78.81
2024-01-15T05:53:31.657Z,78.34
2024-01-15T05:55:58.247Z,78.15
2024-01-15T05:58:25.053Z,78.31
2024-01-15T06:00:51.796Z,77.73
2024-01-15T06:03:18.579Z,77.49
2024-01-15T06:05:45.380Z,77.22
2024-01-15T06:08:12.215Z,77.65
2024-01-15T06:10:38.912Z,77.68
2024-01-15T06:13:05.545Z,78.03
2024-01-15T06:15:32.210Z,77.39
2024-01-15T06:17:58.919Z,77.49
2024-01-15T06:20:25.666Z,76.66
2024-01-15T06:22:52.276Z,77.25
2024-01-15T06:25:18.953Z,77.32
2024-01-15T06:27:45.673Z,76.87
2024-01-15T06:30:13.463Z,76.93
2024-01-15T06:32:40.548Z,76.24
2024-01-15T06:35:07.746Z,76.79
2024-01-15T06:37:34.353Z,76.58
2024-01-15T06:40:01.591Z,76.20
2024-01-15T06:42:28.283Z,76.14
2024-01-15T06:44:55.067Z,75.93
2024-01-15T06:47:21.763Z,76.60
2024-01-15T06:49:48.496Z,76.55
2024-01-15T06:52:15.160Z,76.61
2024-01-15T06:54:41.868Z,76.23
2024-01-15T06:57:08.666Z,76.56
2024-01-15T06:59:36.642Z,76.58
2024-01-15T07:02:03.959Z,76.47
2024-01-15T07:04:30.732Z,76.74
2024-01-15T07:06:57.587Z,76.41
2024-01-15T07:09:24.437Z,76.53
2024-01-15T07:11:51.683Z,76.53
2024-01-15T07:14:18.390Z,75.77
2024-01-15T07:16:48.541Z,76.07
2024-01-15T07:19:16.030Z,76.34
2024-01-15T07:21:44.291Z,75.91
2024-01-15T07:24:11.735Z,76.93
2024-01-15T07:26:38.457Z,76.96
2024-01-15T07:29:05.510Z,76.94
2024-01-15T07:31:32.257Z,77.57
2024-01-15T07:33:59.129Z,77.84
2024-01-15T07:36:25.851Z,77.53
2024-01-15T07:38:52.548Z,77.91
2024-01-15T07:41:19.246Z,78.39
2024-01-15T07:43:45.896Z,77.92
2024-01-15T07:46:12.623Z,78.13
2024-01-15T07:48:39.429Z,78.05
2024-01-15T07:51:06.276Z,78.11
2024-01-15T07:53:32.945Z,77.99
2024-01-15T07:55:59.791Z,77.61
2024-01-15T07:58:27.157Z,77.43
2024-01-15T08:00:54.264Z,77.06
2024-01-15T08:03:21.174Z,76.80
2024-01-15T08:05:48.358Z,77.00
2024-01-15T08:08:15.120Z,76.91
2024-01-15T08:10:41.797Z,76.28
2024-01-15T08:13:10.286Z,76.43
2024-01-15T08:15:37.392Z,76.24
2024-01-15T08:18:04.239Z,75.88
2024-01-15T08:20:32.107Z,75.93
2024-01-15T08:22:59.147Z,76.00
2024-01-15T08:25:27.119Z,75.92
2024-01-15T08:27:54.039Z,76.28
2024-01-15T08:30:22.259Z,76.12
2024-01-15T08:32:49.080Z,76.02
2024-01-15T08:35:15.842Z,75.87
2024-01-15T08:37:42.541Z,75.85
2024-01-15T08:40:09.718Z,75.86
2024-01-15T08:42:36.411Z,75.80
2024-01-15T08:45:03.318Z,75.68
2024-01-15T08:47:30.165Z,75.46
2024-01-15T08:49:57.411Z,75.61
2024-01-15T08:52:24.118Z,75.85
2024-01-15T08:54:50.862Z,75.89
2024-01-15T08:57:17.674Z,75.20
2024-01-15T08:59:44.309Z,75.13
2024-01-15T09:02:11.114Z,75.06
2024-01-15T09:04:37.812Z,74.74
2024-01-15T09:07:04.713Z,74.81
2024-01-15T09:09:31.448Z,75.25
2024-01-15T09:11:58.746Z,75.20
2024-01-15T09:14:33.460Z,75.03
2024-01-15T09:17:05.580Z,74.84
2024-01-15T09:19:32.683Z,74.18
2024-01-15T09:21:59.757Z,74.29
2024-01-15T09:24:28.135Z,73.96
2024-01-15T09:26:56.143Z,73.87
2024-01-15T09:29:24.692Z,74.36
2024-01-15T09:31:51.757Z,74.14
2024-01-15T09:34:19.493Z,73.86
2024-01-15T09:36:46.504Z,73.18
2024-01-15T09:39:13.468Z,72.56
2024-01-15T09:41:40.509Z,71.70
2024-01-15T09:44:08.961Z,71.59
2024-01-15T09:46:40.101Z,71.20
2024-01-15T09:49:07.020Z,71.55
2024-01-15T09:51:34.146Z,71.32
2024-01-15T09:54:01.085Z,71.40
2024-01-15T09:56:28.803Z,70.67
2024-01-15T09:58:56.017Z,70.47
2024-01-15T10:01:23.845Z,70.02
2024-01-15T10:03:51.607Z,70.28
2024-01-15T10:06:22.501Z,70.15
2024-01-15T10:08:53.672Z,70.14
2024-01-15T10:11:20.361Z,69.69
2024-01-15T10:13:56.777Z,70.01
2024-01-15T10:16:24.664Z,69.00
2024-01-15T10:18:52.405Z,69.60
2024-01-15T10:21:19.170Z,68.98
2024-01-15T10:23:45.877Z,67.92
2024-01-15T10:26:19.197Z,66.86
2024-01-15T10:28:46.224Z,67.30
2024-01-15T10:31:13.265Z,67.43
2024-01-15T10:33:40.006Z,67.92
2024-01-15T10:36:11.581Z,68.44
2024-01-15T10:38:38.823Z,68.90
2024-01-15T10:41:05.748Z,68.93
2024-01-15T10:43:32.471Z,69.15
2024-01-15T10:45:59.640Z,69.09
2024-01-15T10:48:29.687Z,69.13
2024-01-15T10:50:57.196Z,69.34
2024-01-15T10:53:24.596Z,69.99
2024-01-15T10:55:52.612Z,69.27
2024-01-15T10:58:21.026Z,69.82
2024-01-15T11:00:48.067Z,69.50
2024-01-15T11:03:15.121Z,69.47
2024-01-15T11:05:45.523Z,70.16
2024-01-15T11:08:12.581Z,70.07
2024-01-15T11:10:53.134Z,69.81
2024-01-15T11:13:40.534Z,69.70
2024-01-15T11:16:09.172Z,69.19
2024-01-15T11:18:40.309Z,69.10
2024-01-15T11:21:08.690Z,69.27
2024-01-15T11:23:54.026Z,69.63
2024-01-15T11:26:45.257Z,69.68
2024-01-15T11:29:31.092Z,69.25
2024-01-15T11:32:08.310Z,69.18
2024-01-15T11:35:00.943Z,69.27
2024-01-15T11:37:29.315Z,69.18
2024-01-15T11:40:01.643Z,68.80
2024-01-15T11:42:29.053Z,67.92
2024-01-15T11:44:56.103Z,67.66
2024-01-15T11:47:57.660Z,67.86
2024-01-15T11:50:25.827Z,67.58
2024-01-15T11:53:06.956Z,67.74
2024-01-15T11:55:42.401Z,68.18
2024-01-15T11:58:11.038Z,68.03
2024-01-15T12:00:43.481Z,67.52
2024-01-15T12:03:11.129Z,68.25
2024-01-15T12:05:39.093Z,67.88
2024-01-15T12:08:12.255Z,67.83
2024-01-15T12:10:42.296Z,68.67
2024-01-15T12:13:16.117Z,68.29
2024-01-15T12:15:44.447Z,68.43
2024-01-15T12:18:14.070Z,68.37
2024-01-15T12:20:41.522Z,69.04
2024-01-15T12:23:09.115Z,69.27
2024-01-15T12:25:38.340Z,69.62
2024-01-15T12:28:05.609Z,69.57
2024-01-15T12:30:35.028Z,70.35
2024-01-15T12:33:06.131Z,70.45
2024-01-15T12:35:34.819Z,70.58
2024-01-15T12:38:05.923Z,70.96
2024-01-15T12:40:35.645Z,71.11
2024-01-15T12:43:03.183Z,71.17
2024-01-15T12:45:31.434Z,70.90
2024-01-15T12:47:59.025Z,71.16
2024-01-15T12:50:29.384Z,71.48
2024-01-15T12:52:56.139Z,71.19
2024-01-15T12:55:23.316Z,71.26
2024-01-15T12:57:53.647Z,71.30
2024-01-15T13:00:20.699Z,71.76
2024-01-15T13:02:47.578Z,72.24
2024-01-15T13:05:15.583Z,72.12
2024-01-15T13:07:44.515Z,72.47
2024-01-15T13:10:11.928Z,73.10
2024-01-15T13:12:39.738Z,73.27
2024-01-15T13:15:10.866Z,73.40
2024-01-15T13:17:38.030Z,73.88
2024-01-15T13:20:05.286Z,73.57
2024-01-15T13:22:33.970Z,73.50
2024-01-15T13:25:01.425Z,73.62
2024-01-15T13:27:28.926Z,73.36
2024-01-15T13:29:56.069Z,73.69
2024-01-15T13:32:28.619Z,74.10
2024-01-15T13:34:58.656Z,73.58
2024-01-15T13:37:25.810Z,73.81
2024-01-15T13:39:53.810Z,74.08
2024-01-15T13:42:23.416Z,73.92
2024-01-15T13:44:50.394Z,74.31
2024-01-15T13:47:17.196Z,74.19
2024-01-15T13:49:43.856Z,74.96
2024-01-15T13:52:10.582Z,75.74
2024-01-15T13:54:45.259Z,77.75
2024-01-15T13:57:19.134Z,79.08
2024-01-15T13:59:46.560Z,80.07
2024-01-15T14:02:14.999Z,81.06
2024-01-15T14:04:42.930Z,84.31
2024-01-15T14:07:09.642Z,86.53
2024-01-15T14:09:36.426Z,87.63
2024-01-15T14:12:03.748Z,88.07
2024-01-15T14:14:30.621Z,88.40
2024-01-15T14:16:57.920Z,88.51
2024-01-15T14:19:24.747Z,88.39
2024-01-15T14:21:51.685Z,87.66
2024-01-15T14:24:19.016Z,87.22
2024-01-15T14:26:45.831Z,87.98
2024-01-15T14:29:12.559Z,87.95
2024-01-15T14:31:40.609Z,88.56
2024-01-15T14:34:08.996Z,88.12
2024-01-15T14:36:36.156Z,88.13
2024-01-15T14:39:03.134Z,88.50
2024-01-15T14:41:30.684Z,87.88
2024-01-15T14:43:58.508Z,88.27
2024-01-15T14:46:25.301Z,88.31
2024-01-15T14:48:52.047Z,88.34
2024-01-15T14:51:18.873Z,89.61
2024-01-15T14:53:45.643Z,91.77
2024-01-15T14:56:14.629Z,93.73
2024-01-15T14:58:42.671Z,94.23
2024-01-15T15:01:09.445Z,95.20
2024-01-15T15:03:36.443Z,95.64
2024-01-15T15:06:03.405Z,95.94
2024-01-15T15:08:30.492Z,96.52
2024-01-15T15:10:57.949Z,96.55
2024-01-15T15:13:34.086Z,97.47
2024-01-15T15:16:09.000Z,97.32
2024-01-15T15:18:36.067Z,97.45
2024-01-15T15:21:03.445Z,97.53
2024-01-15T15:23:30.266Z,97.87
2024-01-15T15:25:56.977Z,97.44
2024-01-15T15:28:23.686Z,97.60
2024-01-15T15:30:50.519Z,97.11
2024-01-15T15:33:17.350Z,97.29
2024-01-15T15:35:44.201Z,96.89
2024-01-15T15:38:10.911Z,96.04
2024-01-15T15:40:37.533Z,95.17
2024-01-15T15:43:04.411Z,94.94
2024-01-15T15:45:31.068Z,94.72
2024-01-15T15:47:57.911Z,93.54
2024-01-15T15:50:24.846Z,93.40
2024-01-15T15:52:52.113Z,93.46
2024-01-15T15:55:18.855Z,93.05
2024-01-15T15:57:45.596Z,92.44
2024-01-15T16:00:12.949Z,92.26
2024-01-15T16:02:39.655Z,92.23
2024-01-15T16:05:11.226Z,92.19
2024-01-15T16:07:38.351Z,92.20
2024-01-15T16:10:05.659Z,91.55
2024-01-15T16:12:32.481Z,91.69
2024-01-15T16:15:01.936Z,91.36
2024-01-15T16:23:15.887Z,90.89
2024-01-15T16:23:29.820Z,90.28
2024-01-15T16:23:54.160Z,90.02
2024-01-15T16:25:51.896Z,88.52
2024-01-15T16:28:19.073Z,88.21
2024-01-15T16:30:47.960Z,88.01
2024-01-15T16:33:14.972Z,88.42
2024-01-15T16:35:41.773Z,88.25
2024-01-15T16:38:08.698Z,88.45
2024-01-15T16:40:36.285Z,88.33
2024-01-15T16:43:04.505Z,88.15
2024-01-15T16:45:31.263Z,88.37
2024-01-15T16:47:57.999Z,88.01
2024-01-15T16:50:24.705Z,88.04
2024-01-15T16:52:51.521Z,88.17
2024-01-15T16:55:18.430Z,87.92
2024-01-15T16:57:45.137Z,87.56
2024-01-15T17:00:12.233Z,87.89
2024-01-15T17:02:39.215Z,87.94
2024-01-15T17:05:06.347Z,88.57
2024-01-15T17:07:33.113Z,89.11
2024-01-15T17:10:00.320Z,89.40
2024-01-15T17:12:27.476Z,90.29
2024-01-15T17:14:54.073Z,91.36
2024-01-15T17:17:22.732Z,92.08
2024-01-15T17:19:50.162Z,91.91
2024-01-15T17:22:16.836Z,92.77
2024-01-15T17:24:43.550Z,93.76
2024-01-15T17:27:10.243Z,93.44
2024-01-15T17:29:37.066Z,93.35
2024-01-15T17:32:04.106Z,93.29
2024-01-15T17:34:30.883Z,92.27
2024-01-15T17:36:57.778Z,91.68
2024-01-15T17:39:24.392Z,91.44
2024-01-15T17:41:51.200Z,90.34
2024-01-15T17:44:18.039Z,90.09
2024-01-15T17:46:45.040Z,89.34
2024-01-15T17:49:11.716Z,88.47
2024-01-15T17:51:38.406Z,88.12
2024-01-15T17:54:09.849Z,87.58
2024-01-15T17:56:36.921Z,87.25
2024-01-15T17:59:04.112Z,87.35
2024-01-15T18:01:32.583Z,87.85
2024-01-15T18:04:04.270Z,88.11
2024-01-15T18:06:32.235Z,88.95
2024-01-15T18:08:59.163Z,90.22
2024-01-15T18:11:25.880Z,91.18
2024-01-15T18:13:52.623Z,92.18
2024-01-15T18:16:23.763Z,92.88
2024-01-15T18:18:52.313Z,94.10
2024-01-15T18:21:20.550Z,94.11
2024-01-15T18:23:47.964Z,94.77
2024-01-15T18:26:16.314Z,94.61
2024-01-15T18:28:43.094Z,95.10
2024-01-15T18:31:09.878Z,95.50
2024-01-15T18:33:37.437Z,95.64
2024-01-15T18:36:04.949Z,95.51
2024-01-15T18:38:32.035Z,95.47
2024-01-15T18:41:00.493Z,95.49
2024-01-15T18:43:31.941Z,95.37
2024-01-15T18:45:59.205Z,96.03
2024-01-15T18:48:25.933Z,96.25
2024-01-15T18:50:52.833Z,97.31
2024-01-15T18:53:19.546Z,98.32
2024-01-15T18:55:46.337Z,99.05
2024-01-15T18:58:13.120Z,100.00
2024-01-15T19:00:39.874Z,100.00
2024-01-15T19:03:06.887Z,100.00
2024-01-15T19:05:33.695Z,100.00
2024-01-15T19:08:00.716Z,100.00
2024-01-15T19:10:27.660Z,100.00
2024-01-15T19:12:54.357Z,100.00
2024-01-15T19:15:21.359Z,100.00
2024-01-15T19:17:50.010Z,100.00
2024-01-15T19:20:17.086Z,100.00
2024-01-15T19:22:43.821Z,100.00
2024-01-15T19:25:12.743Z,100.00
2024-01-15T19:27:44.355Z,100.00
2024-01-15T19:30:17.480Z,100.00
2024-01-15T19:32:44.905Z,100.00
2024-01-15T19:35:11.847Z,100.00
2024-01-15T19:37:38.978Z,100.00
2024-01-15T19:40:07.652Z,100.00
2024-01-15T19:42:34.393Z,100.00
2024-01-15T19:45:01.049Z,100.00
2024-01-15T19:47:28.900Z,100.00
2024-01-15T19:49:55.660Z,100.00
2024-01-15T19:52:22.530Z,100.00
2024-01-15T19:54:49.190Z,100.00
2024-01-15T19:57:15.868Z,100.00
2024-01-15T19:59:42.570Z,100.00
2024-01-15T20:02:09.394Z,100.00
2024-01-15T20:04:36.056Z,100.00
2024-01-15T20:07:03.249Z,100.00
2024-01-15T20:09:30.084Z,100.00
2024-01-15T20:11:56.723Z,100.00
2024-01-15T20:14:25.846Z,100.00
2024-01-15T20:16:52.619Z,100.00
2024-01-15T20:19:19.518Z,100.00
2024-01-15T20:21:46.420Z,100.00
2024-01-15T20:24:13.954Z,100.00
2024-01-15T20:26:40.731Z,100.00
2024-01-15T20:29:10.112Z,100.00
2024-01-15T20:31:37.314Z,99.99
2024-01-15T20:34:04.144Z,99.38
2024-01-15T20:36:30.970Z,99.50
2024-01-15T20:38:57.760Z,99.33
2024-01-15T20:41:25.895Z,99.11
2024-01-15T20:43:52.632Z,99.08
2024-01-15T20:46:19.493Z,98.67
2024-01-15T20:48:46.312Z,98.99
2024-01-15T20:51:13.150Z,98.71
2024-01-15T20:53:43.532Z,99.02
2024-01-15T20:56:10.629Z,98.97
2024-01-15T20:58:37.710Z,98.96
2024-01-15T21:01:08.476Z,99.33
2024-01-15T21:03:36.227Z,99.56
2024-01-15T21:06:03.285Z,99.65
2024-01-15T21:08:31.472Z,100.00
2024-01-15T21:10:58.151Z,100.00
2024-01-15T21:13:24.807Z,100.00
2024-01-15T21:15:51.595Z,100.00
2024-01-15T21:18:18.585Z,100.00
2024-01-15T21:20:45.588Z,100.00
2024-01-15T21:23:12.577Z,100.00
2024-01-15T21:25:39.691Z,100.00
2024-01-15T21:28:08.008Z,100.00
2024-01-15T21:30:36.523Z,100.00
2024-01-15T21:33:08.812Z,100.00
2024-01-15T21:35:35.699Z,100.00
2024-01-15T21:38:02.564Z,100.00
2024-01-15T21:40:29.603Z,100.00
2024-01-15T21:42:57.088Z,100.00
2024-01-15T21:45:23.784Z,100.00
2024-01-15T21:47:50.586Z,99.88
2024-01-15T21:50:17.387Z,99.25
2024-01-15T21:52:44.091Z,99.61
2024-01-15T21:55:11.145Z,99.58
2024-01-15T21:57:37.932Z,99.88
2024-01-15T22:00:07.576Z,99.75
2024-01-15T22:02:41.340Z,99.26
2024-01-15T22:05:10.996Z,98.92
2024-01-15T22:07:41.596Z,98.02
2024-01-15T22:10:08.946Z,97.66
2024-01-15T22:12:35.798Z,97.66
2024-01-15T22:15:02.578Z,98.06
2024-01-15T22:17:30.035Z,97.96
2024-01-15T22:19:56.899Z,98.28
2024-01-15T22:22:23.628Z,97.81
2024-01-15T22:24:50.351Z,97.90
2024-01-15T22:27:17.094Z,97.81
2024-01-15T22:29:43.844Z,97.93
2024-01-15T22:32:10.810Z,97.88
2024-01-15T22:34:37.560Z,97.74
2024-01-15T22:37:05.753Z,98.41
2024-01-15T22:39:32.502Z,99.17
2024-01-15T22:42:00.148Z,100.00
2024-01-15T22:44:27.242Z,100.00
2024-01-15T22:46:54.051Z,100.00
2024-01-15T22:49:20.984Z,100.00
2024-01-15T22:51:47.816Z,100.00
2024-01-15T22:54:14.565Z,100.00
2024-01-15T22:56:41.321Z,100.00
2024-01-15T22:59:08.167Z,100.00
2024-01-15T23:01:34.855Z,100.00
2024-01-15T23:04:01.588Z,100.00
2024-01-15T23:06:28.637Z,100.00
2024-01-15T23:08:56.578Z,100.00
2024-01-15T23:11:24.404Z,100.00
2024-01-15T23:13:51.405Z,100.00
2024-01-15T23:16:18.005Z,100.00
2024-01-15T23:18:45.484Z,100.00
2024-01-15T23:21:12.379Z,100.00
2024-01-15T23:23:39.351Z,100.00
2024-01-15T23:26:06.572Z,100.00
2024-01-15T23:28:33.652Z,100.00
2024-01-15T23:31:02.063Z,100.00
2024-01-15T23:33:29.466Z,100.00
2024-01-15T23:35:57.440Z,100.00
2024-01-15T23:38:24.528Z,99.12
2024-01-15T23:40:51.789Z,99.33
2024-01-15T23:43:18.800Z,96.92
2024-01-15T23:45:47.825Z,96.02
2024-01-15T23:48:15.869Z,94.23
2024-01-15T23:50:42.834Z,93.40
2024-01-15T23:53:09.958Z,93.05
2024-01-15T23:55:36.695Z,92.87
2024-01-15T23:58:04.364Z,93.71
